Time;durP1;ratioP1;P1;durP2;ratioP2;P2;SDS_P1;SDS_P2;PMS_P1;PMS_P2;Temp;Humidity;BMP_temperature;BMP_pressure;BME280_temperature;BME280_humidity;BME280_pressure;Samples;Min_cycle;Max_cycle;Signal;HPM_P1;HPM_P2
2022/03/26 00:00:08;;;;;;;37.50;19.60;;;4.00;95.60;;;;;;5042957;28;20217;-81
2022/03/26 00:02:34;;;;;;;32.77;18.13;;;4.10;95.80;;;;;;5041655;28;20182;-81
2022/03/26 00:04:59;;;;;;;39.70;18.93;;;4.10;96.20;;;;;;5043527;28;20626;-81
2022/03/26 00:07:26;;;;;;;35.30;18.50;;;4.00;96.40;;;;;;5042796;28;20201;-82
2022/03/26 00:09:51;;;;;;;35.37;19.53;;;4.00;97.20;;;;;;5043726;28;20154;-81
2022/03/26 00:12:17;;;;;;;34.47;19.10;;;4.00;98.20;;;;;;5043322;28;20308;-81
2022/03/26 00:14:42;;;;;;;36.47;18.70;;;3.90;98.70;;;;;;5042831;28;20220;-81
2022/03/26 00:17:08;;;;;;;34.67;18.77;;;3.80;99.40;;;;;;5041842;28;20202;-81
2022/03/26 00:19:34;;;;;;;32.00;17.33;;;3.80;99.80;;;;;;5041634;28;20206;-81
2022/03/26 00:22:00;;;;;;;30.90;18.63;;;3.80;99.90;;;;;;5043350;28;20281;-81
2022/03/26 00:24:25;;;;;;;31.73;17.43;;;3.60;99.90;;;;;;5043441;28;20229;-82
2022/03/26 00:26:52;;;;;;;30.87;17.80;;;3.70;99.90;;;;;;5041633;28;20201;-81
2022/03/26 00:29:18;;;;;;;32.30;18.23;;;3.70;99.90;;;;;;5043540;28;20181;-81
2022/03/26 00:31:44;;;;;;;33.50;18.53;;;3.80;99.90;;;;;;5043480;28;20177;-82
2022/03/26 00:34:09;;;;;;;34.27;18.43;;;3.70;99.90;;;;;;5041254;28;20178;-81
2022/03/26 00:36:35;;;;;;;29.90;18.30;;;3.70;99.90;;;;;;5043820;28;20201;-81
2022/03/26 00:39:02;;;;;;;32.43;17.60;;;;;;;;;;5041421;28;20174;-81
2022/03/26 00:41:28;;;;;;;33.30;17.57;;;3.60;99.90;;;;;;5043371;28;20456;-81
2022/03/26 00:43:55;;;;;;;26.87;16.57;;;3.50;99.90;;;;;;5040897;28;20443;-81
2022/03/26 00:46:21;;;;;;;31.87;17.83;;;3.40;99.90;;;;;;5041407;28;20194;-82
2022/03/26 00:48:47;;;;;;;29.73;16.80;;;3.40;99.90;;;;;;5043049;28;20408;-81
2022/03/26 00:51:17;;;;;;;28.43;17.33;;;3.50;99.90;;;;;;5043135;28;20667;-81
2022/03/26 00:53:43;;;;;;;26.67;16.20;;;3.50;99.90;;;;;;5040741;28;20460;-81
2022/03/26 00:56:09;;;;;;;28.77;16.60;;;3.30;99.90;;;;;;5043008;28;20193;-81
2022/03/26 00:58:34;;;;;;;27.60;16.43;;;3.30;99.90;;;;;;5042798;28;20409;-81
2022/03/26 01:01:00;;;;;;;28.40;15.93;;;3.30;99.90;;;;;;5041406;28;20198;-81
2022/03/26 01:03:26;;;;;;;26.03;15.57;;;3.30;99.90;;;;;;5040900;28;20261;-81
2022/03/26 01:05:52;;;;;;;28.37;16.33;;;3.30;99.90;;;;;;5040979;28;20174;-81
2022/03/26 01:08:17;;;;;;;27.77;16.23;;;3.30;99.90;;;;;;5041249;28;20185;-81
2022/03/26 01:10:44;;;;;;;26.63;17.03;;;3.30;99.90;;;;;;5041786;28;20277;-81
2022/03/26 01:13:11;;;;;;;26.37;15.87;;;3.30;99.90;;;;;;5041195;28;20175;-81
2022/03/26 01:15:37;;;;;;;27.80;17.53;;;3.30;99.90;;;;;;5041789;28;20185;-81
2022/03/26 01:18:03;;;;;;;29.30;16.57;;;3.30;99.90;;;;;;5041772;28;20202;-81
2022/03/26 01:20:29;;;;;;;26.10;16.33;;;3.10;99.90;;;;;;5041992;28;20186;-81
2022/03/26 01:22:55;;;;;;;28.43;16.40;;;3.00;99.90;;;;;;5042842;28;20658;-81
2022/03/26 01:25:21;;;;;;;30.90;17.43;;;2.90;99.90;;;;;;5041628;28;20178;-81
2022/03/26 01:27:46;;;;;;;29.23;17.47;;;2.90;99.90;;;;;;5042028;28;20262;-81
2022/03/26 01:30:13;;;;;;;28.57;15.87;;;2.90;99.90;;;;;;5042190;28;20178;-82
2022/03/26 01:32:39;;;;;;;25.60;16.50;;;2.90;99.90;;;;;;5045427;28;20166;-81
2022/03/26 01:35:05;;;;;;;30.07;15.97;;;2.80;99.90;;;;;;5043348;28;20531;-81
2022/03/26 01:37:31;;;;;;;27.77;16.00;;;2.80;99.90;;;;;;5044014;28;20249;-81
2022/03/26 01:39:56;;;;;;;29.33;16.20;;;2.70;99.90;;;;;;5046262;28;20182;-81
2022/03/26 01:42:22;;;;;;;29.63;17.77;;;2.70;99.90;;;;;;5046265;28;20206;-81
2022/03/26 01:44:48;;;;;;;26.10;15.97;;;2.80;99.90;;;;;;5046102;28;20190;-82
2022/03/26 01:47:14;;;;;;;30.77;15.90;;;2.80;99.90;;;;;;5044596;28;20198;-81
2022/03/26 01:49:39;;;;;;;28.93;16.63;;;2.80;99.90;;;;;;5044650;28;20201;-81
2022/03/26 01:52:07;;;;;;;29.63;16.93;;;2.70;99.90;;;;;;5044406;28;20421;-81
2022/03/26 01:54:33;;;;;;;29.90;15.93;;;2.70;99.90;;;;;;5044685;28;20182;-81
2022/03/26 01:56:59;;;;;;;28.80;16.93;;;2.60;99.90;;;;;;5046571;28;20439;-81
2022/03/26 01:59:26;;;;;;;28.73;16.67;;;3.80;99.90;;;;;;5046256;28;20178;-81
2022/03/26 02:01:52;;;;;;;27.77;16.37;;;2.50;99.90;;;;;;5045543;28;20202;-81
2022/03/26 02:04:18;;;;;;;32.67;16.80;;;2.40;99.90;;;;;;5043264;28;20300;-81
2022/03/26 02:06:43;;;;;;;32.67;17.93;;;2.50;99.90;;;;;;5044097;28;20449;-81
2022/03/26 02:09:11;;;;;;;24.30;15.00;;;2.50;99.90;;;;;;5045967;28;20257;-81
2022/03/26 02:11:39;;;;;;;32.90;16.17;;;2.40;99.90;;;;;;5045426;28;20229;-82
2022/03/26 02:14:08;;;;;;;25.43;15.40;;;2.40;99.90;;;;;;5045113;28;20183;-81
2022/03/26 02:16:35;;;;;;;29.27;15.67;;;3.70;99.90;;;;;;5045549;28;20205;-81
2022/03/26 02:19:00;;;;;;;30.77;16.50;;;2.30;99.90;;;;;;5045527;28;20417;-81
2022/03/26 02:21:27;;;;;;;26.50;16.43;;;2.30;99.90;;;;;;5046422;28;20202;-81
2022/03/26 02:23:53;;;;;;;31.90;16.83;;;2.40;99.90;;;;;;5043875;28;20170;-81
2022/03/26 02:26:25;;;;;;;26.93;16.30;;;2.10;99.90;;;;;;5043817;28;20252;-81
2022/03/26 02:28:52;;;;;;;32.70;16.37;;;2.10;99.90;;;;;;5045658;28;20151;-81
2022/03/26 02:31:18;;;;;;;36.10;20.00;;;2.10;99.90;;;;;;5046160;28;20578;-81
2022/03/26 02:33:44;;;;;;;36.80;20.23;;;2.10;99.90;;;;;;5045974;28;20461;-81
2022/03/26 02:36:10;;;;;;;32.23;17.57;;;2.20;99.90;;;;;;5044172;28;20237;-81
2022/03/26 02:38:37;;;;;;;26.77;16.43;;;2.10;99.90;;;;;;5045320;28;20492;-81
2022/03/26 02:41:03;;;;;;;28.73;16.70;;;2.00;99.90;;;;;;5044473;28;20251;-81
2022/03/26 02:43:29;;;;;;;27.43;16.43;;;1.90;99.90;;;;;;5043464;28;20424;-81
2022/03/26 02:45:55;;;;;;;31.20;16.30;;;1.80;99.90;;;;;;5045144;28;20410;-81
2022/03/26 02:48:21;;;;;;;27.43;16.27;;;1.80;99.90;;;;;;5045942;28;20175;-81
2022/03/26 02:50:47;;;;;;;29.57;16.93;;;1.80;99.90;;;;;;5043335;28;20185;-81
2022/03/26 02:53:13;;;;;;;32.60;17.43;;;;;;;;;;5043759;28;20177;-81
2022/03/26 02:55:40;;;;;;;27.73;15.60;;;1.80;99.90;;;;;;5045379;28;20409;-81
2022/03/26 02:58:07;;;;;;;29.67;15.97;;;2.90;99.90;;;;;;5043832;28;20468;-81
2022/03/26 03:00:34;;;;;;;28.47;15.60;;;1.70;99.90;;;;;;5043085;28;20592;-82
2022/03/26 03:03:00;;;;;;;24.87;15.73;;;1.70;99.90;;;;;;5044940;28;20174;-81
2022/03/26 03:05:26;;;;;;;27.40;15.60;;;1.70;99.90;;;;;;5043183;28;20209;-81
2022/03/26 03:07:52;;;;;;;30.77;16.27;;;1.70;99.90;;;;;;5042678;28;20645;-81
2022/03/26 03:10:18;;;;;;;29.13;17.07;;;1.60;99.90;;;;;;5043623;28;20455;-81
2022/03/26 03:12:48;;;;;;;28.23;16.33;;;1.60;99.90;;;;;;5044209;28;20243;-81
2022/03/26 03:15:18;;;;;;;26.90;16.20;;;1.70;99.90;;;;;;5043047;28;20428;-81
2022/03/26 03:17:45;;;;;;;27.10;16.00;;;1.50;99.90;;;;;;5044234;28;20429;-81
2022/03/26 03:20:13;;;;;;;28.13;16.27;;;1.90;99.90;;;;;;5043634;28;20413;-81
2022/03/26 03:22:39;;;;;;;33.43;17.17;;;1.70;99.90;;;;;;5042709;28;20413;-81
2022/03/26 03:25:06;;;;;;;25.47;15.50;;;1.60;99.90;;;;;;5042777;28;20170;-81
2022/03/26 03:27:32;;;;;;;29.47;16.30;;;1.60;99.90;;;;;;5043656;28;20198;-81
2022/03/26 03:29:58;;;;;;;31.03;17.83;;;3.10;99.90;;;;;;5042307;28;20476;-81
2022/03/26 03:32:24;;;;;;;31.20;16.43;;;3.00;99.90;;;;;;5044137;28;20903;-80
2022/03/26 03:34:51;;;;;;;28.47;16.30;;;1.50;99.90;;;;;;5044404;28;20410;-81
2022/03/26 03:37:17;;;;;;;54.50;28.03;;;1.30;99.90;;;;;;5042080;28;20202;-81
2022/03/26 03:39:43;;;;;;;45.63;25.07;;;;;;;;;;5042851;28;20417;-81
2022/03/26 03:42:09;;;;;;;37.70;20.07;;;1.20;99.90;;;;;;5044204;28;20968;-81
2022/03/26 03:44:35;;;;;;;29.90;17.63;;;1.20;99.90;;;;;;5043534;28;20167;-81
2022/03/26 03:47:01;;;;;;;35.07;16.30;;;1.20;99.90;;;;;;5043571;28;20212;-82
2022/03/26 03:49:26;;;;;;;35.93;18.50;;;2.10;99.90;;;;;;5042710;28;20596;-81
2022/03/26 03:51:53;;;;;;;29.80;17.83;;;1.50;99.90;;;;;;5042406;28;20421;-81
2022/03/26 03:54:19;;;;;;;29.93;16.00;;;1.10;99.90;;;;;;5043230;28;20236;-81
2022/03/26 03:56:44;;;;;;;28.63;15.70;;;1.00;99.90;;;;;;5043848;28;20436;-81
2022/03/26 03:59:12;;;;;;;26.40;15.30;;;1.50;99.90;;;;;;5042607;28;20204;-82
2022/03/26 04:01:38;;;;;;;25.97;15.87;;;0.90;99.90;;;;;;5040629;28;20247;-82
2022/03/26 04:04:04;;;;;;;30.53;16.20;;;1.30;99.90;;;;;;5037554;28;20484;-82
2022/03/26 04:06:30;;;;;;;29.10;16.70;;;0.80;99.90;;;;;;5037700;28;20194;-81
2022/03/26 04:08:55;;;;;;;28.50;17.70;;;0.90;99.90;;;;;;5041799;28;20439;-81
2022/03/26 04:11:21;;;;;;;36.13;17.53;;;1.00;99.90;;;;;;5041868;28;20269;-82
2022/03/26 04:13:50;;;;;;;27.30;16.10;;;1.00;99.90;;;;;;5037632;28;20209;-81
2022/03/26 04:16:18;;;;;;;28.57;16.40;;;1.10;99.90;;;;;;5038846;28;20672;-82
2022/03/26 04:18:43;;;;;;;30.90;16.47;;;1.00;99.90;;;;;;5039277;28;20413;-82
2022/03/26 04:21:09;;;;;;;30.10;16.70;;;1.00;99.90;;;;;;5038705;28;20996;-82
2022/03/26 04:23:35;;;;;;;29.13;16.40;;;1.00;99.90;;;;;;5037740;28;20170;-82
2022/03/26 04:26:01;;;;;;;27.63;15.83;;;1.10;99.90;;;;;;5041284;28;20588;-82
2022/03/26 04:28:27;;;;;;;27.57;15.93;;;1.10;99.90;;;;;;5039490;28;20624;-82
2022/03/26 04:30:53;;;;;;;30.00;16.27;;;1.00;99.90;;;;;;5042558;28;20423;-82
2022/03/26 04:33:18;;;;;;;30.77;16.93;;;1.00;99.90;;;;;;5044289;28;20178;-82
2022/03/26 04:35:44;;;;;;;27.37;15.20;;;1.10;99.90;;;;;;5042626;28;20180;-82
2022/03/26 04:38:10;;;;;;;27.83;16.70;;;1.00;99.90;;;;;;5041592;28;20202;-82
2022/03/26 04:40:36;;;;;;;29.00;16.03;;;1.00;99.90;;;;;;5042839;28;20699;-82
2022/03/26 04:43:01;;;;;;;29.70;16.87;;;1.00;99.90;;;;;;5040752;28;20224;-82
2022/03/26 04:45:29;;;;;;;30.00;16.87;;;0.90;99.90;;;;;;5042951;28;20261;-81
2022/03/26 04:47:55;;;;;;;26.53;15.87;;;0.90;99.90;;;;;;5041376;28;20582;-81
2022/03/26 04:50:21;;;;;;;29.03;17.37;;;0.90;99.90;;;;;;5039910;28;20440;-82
2022/03/26 04:52:48;;;;;;;32.53;17.87;;;0.80;99.90;;;;;;5042296;28;20587;-82
2022/03/26 04:55:14;;;;;;;30.50;16.17;;;0.90;99.90;;;;;;5043176;28;20487;-82
2022/03/26 04:57:45;;;;;;;27.07;15.57;;;1.50;99.90;;;;;;5042288;28;20471;-81
2022/03/26 05:00:13;;;;;;;27.10;15.27;;;0.70;99.90;;;;;;5042836;28;20416;-82
2022/03/26 05:02:39;;;;;;;28.00;15.17;;;0.60;99.90;;;;;;5043779;28;20452;-82
2022/03/26 05:05:11;;;;;;;30.07;16.10;;;0.40;99.90;;;;;;5043511;28;20441;-83
2022/03/26 05:07:46;;;;;;;25.27;15.13;;;0.30;99.90;;;;;;5043792;28;20448;-83
2022/03/26 05:10:17;;;;;;;25.43;14.93;;;0.20;99.90;;;;;;5042336;28;20418;-84
2022/03/26 05:12:43;;;;;;;30.70;15.33;;;0.20;99.90;;;;;;5046001;28;20409;-83
2022/03/26 05:15:10;;;;;;;28.80;15.73;;;0.30;99.90;;;;;;5045890;28;20417;-83
2022/03/26 05:17:37;;;;;;;26.37;14.80;;;0.20;99.90;;;;;;5046199;28;20433;-83
2022/03/26 05:20:08;;;;;;;25.10;15.63;;;0.30;99.90;;;;;;5046230;28;20462;-84
2022/03/26 05:22:35;;;;;;;31.53;16.07;;;0.20;99.90;;;;;;5045972;28;20486;-83
2022/03/26 05:25:00;;;;;;;26.53;16.47;;;0.10;99.90;;;;;;5047270;28;20972;-83
2022/03/26 05:27:27;;;;;;;30.43;16.40;;;0.30;99.90;;;;;;5045854;28;20445;-83
2022/03/26 05:29:53;;;;;;;25.47;14.87;;;0.30;99.90;;;;;;5046097;28;20185;-84
2022/03/26 05:32:19;;;;;;;31.13;17.20;;;0.40;99.90;;;;;;5047471;28;20480;-83
2022/03/26 05:34:44;;;;;;;29.63;17.33;;;0.90;99.90;;;;;;5046262;28;20988;-84
2022/03/26 05:37:11;;;;;;;32.10;17.63;;;0.40;99.90;;;;;;5045867;28;20237;-83
2022/03/26 05:39:37;;;;;;;36.43;16.60;;;0.60;99.90;;;;;;5048109;28;20175;-83
2022/03/26 05:42:04;;;;;;;26.13;16.13;;;0.60;99.90;;;;;;5048069;28;20456;-83
2022/03/26 05:44:30;;;;;;;28.17;16.57;;;0.60;99.90;;;;;;5047484;28;20568;-83
2022/03/26 05:46:56;;;;;;;28.70;16.17;;;0.60;99.90;;;;;;5046628;28;20487;-84
2022/03/26 05:49:22;;;;;;;32.20;17.60;;;0.50;99.90;;;;;;5048283;28;20434;-83
2022/03/26 05:51:48;;;;;;;31.87;17.67;;;0.60;99.90;;;;;;5048437;28;20174;-83
2022/03/26 05:54:14;;;;;;;31.80;17.77;;;0.70;99.90;;;;;;5047299;28;20190;-83
2022/03/26 05:56:40;;;;;;;35.23;17.87;;;1.00;99.90;;;;;;5048295;28;20198;-84
2022/03/26 05:59:10;;;;;;;30.77;16.20;;;0.80;99.90;;;;;;5047200;28;20541;-84
2022/03/26 06:01:36;;;;;;;33.17;17.40;;;1.60;99.90;;;;;;5047280;28;20192;-84
2022/03/26 06:04:03;;;;;;;41.00;21.43;;;1.50;99.90;;;;;;5047643;28;20955;-83
2022/03/26 06:06:28;;;;;;;41.53;20.80;;;1.10;99.90;;;;;;5047164;28;20217;-83
2022/03/26 06:08:54;;;;;;;31.13;17.33;;;1.20;99.90;;;;;;5047020;28;20428;-83
2022/03/26 06:11:20;;;;;;;32.93;17.13;;;1.40;99.90;;;;;;5047620;28;20679;-83
2022/03/26 06:13:46;;;;;;;35.47;20.07;;;1.40;99.90;;;;;;5046021;28;20182;-83
2022/03/26 06:16:13;;;;;;;39.67;21.47;;;1.40;99.90;;;;;;5046489;28;20449;-83
2022/03/26 06:18:38;;;;;;;33.47;20.00;;;2.00;99.90;;;;;;5047930;28;20405;-83
2022/03/26 06:21:05;;;;;;;32.23;18.43;;;1.70;99.90;;;;;;5046917;28;20818;-83
2022/03/26 06:23:32;;;;;;;32.40;19.07;;;1.90;99.90;;;;;;5045348;28;20178;-83
2022/03/26 06:25:58;;;;;;;29.43;17.17;;;1.90;99.90;;;;;;5046397;28;20432;-84
2022/03/26 06:28:23;;;;;;;31.90;18.40;;;2.00;99.90;;;;;;5047723;28;20412;-85
2022/03/26 06:30:49;;;;;;;32.17;17.33;;;2.00;99.90;;;;;;5049294;28;20212;-84
2022/03/26 06:33:16;;;;;;;33.27;17.30;;;2.10;99.90;;;;;;5049572;28;20615;-83
2022/03/26 06:35:43;;;;;;;36.13;18.03;;;2.10;99.90;;;;;;5047390;28;20171;-83
2022/03/26 06:38:10;;;;;;;28.03;17.30;;;2.20;99.90;;;;;;5046117;28;20550;-82
2022/03/26 06:40:37;;;;;;;27.90;16.37;;;2.30;99.90;;;;;;5057210;28;20418;-83
2022/03/26 06:43:04;;;;;;;31.07;18.13;;;2.50;99.90;;;;;;5052399;28;20449;-84
2022/03/26 06:45:30;;;;;;;30.80;17.00;;;2.60;99.90;;;;;;5047213;28;20413;-84
2022/03/26 06:47:55;;;;;;;31.80;18.23;;;2.70;99.90;;;;;;5050895;28;20997;-84
2022/03/26 06:50:21;;;;;;;31.23;18.10;;;2.90;99.90;;;;;;5051887;28;20184;-84
2022/03/26 06:52:47;;;;;;;31.30;18.13;;;3.10;99.90;;;;;;5049265;28;20190;-83
2022/03/26 06:55:12;;;;;;;29.70;18.27;;;3.30;99.90;;;;;;5045202;28;20589;-84
2022/03/26 06:57:38;;;;;;;31.17;17.97;;;3.50;99.90;;;;;;5043859;28;20202;-83
2022/03/26 07:00:05;;;;;;;32.63;19.67;;;3.50;99.90;;;;;;5045472;28;20205;-84
2022/03/26 07:02:31;;;;;;;30.53;18.63;;;3.70;99.90;;;;;;5044033;28;20210;-82
2022/03/26 07:04:57;;;;;;;33.43;19.23;;;3.80;99.90;;;;;;5043492;28;20906;-84
2022/03/26 07:07:23;;;;;;;34.63;20.23;;;4.10;99.90;;;;;;5044184;28;20212;-84
2022/03/26 07:09:48;;;;;;;35.40;19.30;;;4.30;99.90;;;;;;5045217;28;20194;-84
2022/03/26 07:12:14;;;;;;;34.00;19.50;;;4.60;99.90;;;;;;5046557;28;20185;-84
2022/03/26 07:14:40;;;;;;;33.60;19.30;;;4.90;99.90;;;;;;5045584;28;20183;-85
2022/03/26 07:17:05;;;;;;;31.73;19.57;;;5.20;99.90;;;;;;5042784;28;20202;-85
2022/03/26 07:19:32;;;;;;;37.23;19.67;;;5.40;99.90;;;;;;5044958;28;20171;-85
2022/03/26 07:21:57;;;;;;;35.83;21.40;;;5.60;99.90;;;;;;5043215;28;20665;-85
2022/03/26 07:24:23;;;;;;;35.67;20.37;;;5.80;99.90;;;;;;5042845;28;20179;-85
2022/03/26 07:26:48;;;;;;;35.87;20.57;;;6.20;99.90;;;;;;5042221;28;20225;-86
2022/03/26 07:29:14;;;;;;;34.93;19.73;;;6.70;99.90;;;;;;5043058;28;20183;-85
2022/03/26 07:31:40;;;;;;;32.27;20.53;;;7.20;99.90;;;;;;5042264;28;20212;-84
2022/03/26 07:34:06;;;;;;;47.27;24.43;;;7.60;99.90;;;;;;5041071;28;20211;-85
2022/03/26 07:36:32;;;;;;;39.87;21.80;;;8.20;99.90;;;;;;5041518;28;20684;-85
2022/03/26 07:38:58;;;;;;;36.30;22.47;;;8.70;99.90;;;;;;5041818;28;20181;-85
2022/03/26 07:41:24;;;;;;;36.27;21.90;;;8.90;99.90;;;;;;5040843;28;20273;-84
2022/03/26 07:43:50;;;;;;;33.00;21.50;;;9.10;99.90;;;;;;5043261;28;20184;-84
2022/03/26 07:46:18;;;;;;;32.53;21.97;;;9.20;99.90;;;;;;5043601;28;20195;-84
2022/03/26 07:48:45;;;;;;;30.20;20.30;;;9.20;99.90;;;;;;5042936;28;20184;-84
2022/03/26 07:51:10;;;;;;;32.47;21.27;;;9.50;99.90;;;;;;5043390;28;20184;-84
2022/03/26 07:53:36;;;;;;;32.93;21.20;;;10.00;99.50;;;;;;5045192;28;20178;-84
2022/03/26 07:56:02;;;;;;;31.43;19.80;;;10.40;98.70;;;;;;5046017;28;20170;-84
2022/03/26 07:58:28;;;;;;;30.37;19.97;;;10.60;96.50;;;;;;5044517;28;20182;-84
2022/03/26 08:00:53;;;;;;;29.27;20.27;;;10.80;95.50;;;;;;5044597;28;20209;-84
2022/03/26 08:03:19;;;;;;;29.37;20.87;;;11.20;94.50;;;;;;5042201;28;20179;-84
2022/03/26 08:05:45;;;;;;;30.77;18.83;;;11.40;94.10;;;;;;5041174;28;20182;-85
2022/03/26 08:08:11;;;;;;;30.33;19.27;;;11.90;92.20;;;;;;5042888;28;20209;-85
2022/03/26 08:10:38;;;;;;;29.80;18.83;;;12.50;91.50;;;;;;5041922;28;20659;-85
2022/03/26 08:13:04;;;;;;;34.20;20.60;;;12.70;90.50;;;;;;5042993;28;20166;-85
2022/03/26 08:15:30;;;;;;;33.07;21.47;;;12.70;90.60;;;;;;5041606;28;20212;-85
2022/03/26 08:17:58;;;;;;;30.43;19.97;;;12.90;88.80;;;;;;5041586;28;20648;-85
2022/03/26 08:20:26;;;;;;;30.40;19.93;;;13.10;86.80;;;;;;5039165;28;20193;-83
2022/03/26 08:22:52;;;;;;;33.40;21.10;;;13.20;84.30;;;;;;5038774;28;20185;-83
2022/03/26 08:26:19;;;;;;;29.57;19.97;;;13.40;86.20;;;;;;5040891;28;20200;-83
2022/03/26 08:28:08;;;;;;;33.70;19.63;;;13.90;82.00;;;;;;5039341;28;20200;-83
2022/03/26 08:30:34;;;;;;;29.23;20.60;;;14.40;82.30;;;;;;5039025;28;20185;-83
2022/03/26 08:33:01;;;;;;;33.47;21.50;;;14.60;82.40;;;;;;5041331;28;20174;-83
2022/03/26 08:35:38;;;;;;;31.83;21.47;;;14.80;79.70;;;;;;5038538;28;20189;-83
2022/03/26 08:38:05;;;;;;;34.37;20.47;;;15.00;79.40;;;;;;5037442;28;20192;-83
2022/03/26 08:40:32;;;;;;;30.40;20.93;;;15.40;76.50;;;;;;5048004;28;20197;-83
2022/03/26 08:42:59;;;;;;;30.07;21.10;;;15.20;77.50;;;;;;5046743;28;20176;-84
2022/03/26 08:45:26;;;;;;;33.60;21.27;;;15.30;77.90;;;;;;5036134;28;20196;-83
2022/03/26 08:47:53;;;;;;;29.73;21.50;;;15.60;74.10;;;;;;5035701;28;20201;-83
2022/03/26 08:50:19;;;;;;;33.70;21.97;;;15.40;72.80;;;;;;5036690;28;20569;-82
2022/03/26 08:52:47;;;;;;;35.67;21.10;;;15.10;72.90;;;;;;5036351;28;20224;-83
2022/03/26 08:55:14;;;;;;;30.63;21.50;;;15.00;73.90;;;;;;5040325;28;20175;-82
2022/03/26 08:57:40;;;;;;;24.30;20.03;;;15.10;74.90;;;;;;5043363;28;20183;-82
2022/03/26 09:00:09;;;;;;;32.60;20.57;;;15.40;75.20;;;;;;5037282;28;20186;-83
2022/03/26 09:02:35;;;;;;;32.57;21.30;;;15.50;72.70;;;;;;5037471;28;20206;-83
2022/03/26 09:05:02;;;;;;;31.93;19.97;;;15.50;70.70;;;;;;5037686;28;20249;-82
2022/03/26 09:07:28;;;;;;;30.20;20.47;;;15.60;71.60;;;;;;5037227;28;20202;-85
2022/03/26 09:09:54;;;;;;;28.20;21.10;;;15.70;71.60;;;;;;5036981;28;20185;-82
2022/03/26 09:12:20;;;;;;;26.40;19.57;;;15.80;69.50;;;;;;5034749;28;20608;-80
2022/03/26 09:14:46;;;;;;;29.57;20.67;;;15.70;68.40;;;;;;5035091;28;20687;-83
2022/03/26 09:17:12;;;;;;;30.73;20.77;;;15.70;69.30;;;;;;5035177;28;20198;-82
2022/03/26 09:19:37;;;;;;;29.40;21.80;;;15.70;70.80;;;;;;5036948;28;20573;-82
2022/03/26 09:22:03;;;;;;;30.43;21.97;;;15.80;69.50;;;;;;5037857;28;20204;-82
2022/03/26 09:24:29;;;;;;;27.27;21.23;;;16.00;71.40;;;;;;5037559;28;20178;-85
2022/03/26 09:26:54;;;;;;;28.13;20.83;;;16.20;68.30;;;;;;5038077;28;20671;-83
2022/03/26 09:29:21;;;;;;;28.20;21.67;;;16.20;69.00;;;;;;5037746;28;20213;-82
2022/03/26 09:31:47;;;;;;;30.67;21.33;;;16.40;68.10;;;;;;5038253;28;20176;-82
2022/03/26 09:34:12;;;;;;;33.57;23.63;;;16.50;64.80;;;;;;5032785;28;20265;-77
2022/03/26 09:36:38;;;;;;;26.77;21.27;;;16.60;67.00;;;;;;5035161;28;20256;-80
2022/03/26 09:39:04;;;;;;;30.50;22.20;;;16.70;69.30;;;;;;5034666;28;20185;-80
2022/03/26 09:41:31;;;;;;;30.43;21.13;;;17.00;66.00;;;;;;5036393;28;20213;-79
2022/03/26 09:43:58;;;;;;;30.57;20.27;;;16.90;64.80;;;;;;5036244;28;20171;-80
2022/03/26 09:46:24;;;;;;;31.90;21.90;;;17.10;63.00;;;;;;5034117;28;20196;-78
2022/03/26 09:48:50;;;;;;;32.63;21.10;;;17.10;64.60;;;;;;5035199;28;20174;-81
2022/03/26 09:51:20;;;;;;;28.37;21.13;;;17.40;61.90;;;;;;5036481;28;20182;-80
2022/03/26 09:53:47;;;;;;;27.60;20.47;;;17.20;62.80;;;;;;5036574;28;20175;-79
2022/03/26 09:56:12;;;;;;;29.70;20.97;;;17.40;60.70;;;;;;5035509;28;20183;-80
2022/03/26 09:58:38;;;;;;;28.00;21.67;;;17.60;61.00;;;;;;5038192;28;20202;-80
2022/03/26 10:01:04;;;;;;;28.93;21.00;;;17.50;62.60;;;;;;5040638;28;20225;-81
2022/03/26 10:03:29;;;;;;;25.87;19.47;;;17.70;60.40;;;;;;5038895;28;20171;-80
2022/03/26 10:06:07;;;;;;;23.20;19.60;;;18.00;59.30;;;;;;5043836;28;20182;-81
2022/03/26 10:08:38;;;;;;;27.07;20.70;;;18.20;58.60;;;;;;5050081;28;20205;-80
2022/03/26 10:11:06;;;;;;;26.73;20.07;;;18.40;58.40;;;;;;5042940;28;20648;-80
2022/03/26 10:13:36;;;;;;;24.60;20.30;;;18.20;56.00;;;;;;5038157;28;20289;-79
2022/03/26 10:16:08;;;;;;;25.30;21.57;;;18.20;56.80;;;;;;5038515;28;20717;-79
2022/03/26 10:18:36;;;;;;;25.37;21.07;;;18.20;56.90;;;;;;5038521;28;20182;-80
2022/03/26 10:21:05;;;;;;;26.57;20.47;;;18.60;56.30;;;;;;5042148;28;20209;-80
2022/03/26 10:23:30;;;;;;;25.63;20.13;;;18.40;54.90;;;;;;5048996;28;20205;-79
2022/03/26 10:26:06;;;;;;;25.30;20.50;;;18.40;54.20;;;;;;5046579;28;20181;-78
2022/03/26 10:28:32;;;;;;;29.07;20.30;;;18.10;54.40;;;;;;5039880;28;20165;-78
2022/03/26 10:34:10;;;;;;;29.10;20.67;;;18.20;53.90;;;;;;5035846;28;20232;-77
2022/03/26 10:36:38;;;;;;;28.23;21.23;;;18.50;53.70;;;;;;5036108;28;20194;-77
2022/03/26 10:39:07;;;;;;;30.87;21.53;;;18.50;54.40;;;;;;5035967;28;20171;-77
2022/03/26 10:41:34;;;;;;;24.67;19.50;;;18.70;53.40;;;;;;5048359;28;20663;-78
2022/03/26 10:44:13;;;;;;;28.50;21.17;;;18.50;52.50;;;;;;5055829;28;20166;-78
2022/03/26 10:46:50;;;;;;;25.77;20.57;;;18.30;53.10;;;;;;5056337;28;20658;-77
2022/03/26 10:49:30;;;;;;;29.17;20.60;;;18.50;53.60;;;;;;5055551;28;20173;-77
2022/03/26 10:52:03;;;;;;;27.47;21.00;;;19.00;52.50;;;;;;5055577;28;20318;-77
2022/03/26 10:54:31;;;;;;;26.77;20.57;;;19.10;52.20;;;;;;5055676;28;20175;-77
2022/03/26 10:56:58;;;;;;;26.67;21.63;;;18.80;51.00;;;;;;5055349;28;20199;-77
2022/03/26 10:59:25;;;;;;;27.30;22.00;;;18.90;51.60;;;;;;5055469;28;20170;-77
2022/03/26 11:01:51;;;;;;;27.90;22.03;;;19.10;52.00;;;;;;5056527;28;20197;-80
2022/03/26 11:04:18;;;;;;;27.07;21.67;;;19.40;50.70;;;;;;5058359;28;20168;-80
2022/03/26 11:06:45;;;;;;;27.77;21.47;;;19.50;51.80;;;;;;5056595;28;20198;-81
2022/03/26 11:09:11;;;;;;;27.23;22.03;;;19.70;52.00;;;;;;5055804;28;20189;-80
2022/03/26 11:11:38;;;;;;;27.83;22.33;;;19.60;50.60;;;;;;5057865;28;20196;-80
2022/03/26 11:14:34;;;;;;;25.17;20.50;;;19.70;50.90;;;;;;5056532;28;20181;-80
2022/03/26 11:17:26;;;;;;;27.10;21.57;;;20.00;49.30;;;;;;5056666;28;20190;-81
2022/03/26 11:20:21;;;;;;;28.23;21.73;;;20.00;49.70;;;;;;5058916;28;20168;-79
2022/03/26 11:23:18;;;;;;;29.77;22.03;;;20.00;50.30;;;;;;5056252;28;20633;-79
2022/03/26 11:25:50;;;;;;;30.13;21.57;;;20.40;49.10;;;;;;5056170;28;20272;-79
2022/03/26 11:28:50;;;;;;;28.30;21.47;;;20.50;48.60;;;;;;5056737;28;20227;-80
2022/03/26 11:31:28;;;;;;;27.27;21.87;;;20.50;50.30;;;;;;5058033;28;20220;-80
2022/03/26 11:34:05;;;;;;;30.60;21.77;;;20.40;48.70;;;;;;5057873;28;20176;-79
2022/03/26 11:36:32;;;;;;;29.00;22.80;;;20.00;48.70;;;;;;5058198;28;20199;-80
2022/03/26 11:39:15;;;;;;;29.20;22.27;;;20.30;49.70;;;;;;5049043;28;20179;-80
2022/03/26 11:41:42;;;;;;;26.97;22.20;;;20.60;48.80;;;;;;5038779;28;20166;-81
2022/03/26 11:44:09;;;;;;;27.13;21.07;;;20.40;47.40;;;;;;5037808;28;20239;-78
2022/03/26 11:52:16;;;;;;;37.80;23.23;;;20.70;48.60;;;;;;5037098;28;20203;-79
2022/03/26 11:54:42;;;;;;;29.03;23.60;;;21.00;46.70;;;;;;5037161;28;20253;-79
2022/03/26 11:57:18;;;;;;;29.87;22.63;;;20.60;46.80;;;;;;5037149;28;20275;-79
2022/03/26 11:59:44;;;;;;;29.67;23.07;;;20.90;48.00;;;;;;5037196;28;20181;-80
2022/03/26 12:02:22;;;;;;;31.93;23.97;;;21.30;46.60;;;;;;5035613;28;20180;-79
2022/03/26 12:04:56;;;;;;;29.37;22.43;;;21.50;47.20;;;;;;5038506;28;20206;-79
2022/03/26 12:07:24;;;;;;;27.73;21.37;;;21.70;46.40;;;;;;5046486;28;20210;-78
2022/03/26 12:10:09;;;;;;;29.80;23.57;;;21.70;46.60;;;;;;5045838;28;20250;-78
2022/03/26 12:12:58;;;;;;;28.43;22.20;;;21.90;45.70;;;;;;5037520;28;20186;-78
2022/03/26 12:15:26;;;;;;;32.03;23.27;;;22.50;44.30;;;;;;5036665;28;20659;-80
2022/03/26 12:18:15;;;;;;;31.40;23.03;;;22.40;46.20;;;;;;5035811;28;20225;-80
2022/03/26 12:20:44;;;;;;;29.00;23.17;;;22.70;43.50;;;;;;5036953;28;20750;-80
2022/03/26 12:23:29;;;;;;;28.03;21.07;;;22.30;43.10;;;;;;5035804;28;20237;-80
2022/03/26 12:26:05;;;;;;;32.57;22.70;;;22.30;44.30;;;;;;5035915;28;20170;-79
2022/03/26 12:28:36;;;;;;;33.33;23.00;;;22.60;46.10;;;;;;5035519;28;20220;-80
2022/03/26 12:31:07;;;;;;;30.10;23.53;;;23.00;43.60;;;;;;5036564;28;20202;-79
2022/03/26 12:33:43;;;;;;;35.57;23.40;;;22.80;42.50;;;;;;5036038;28;20197;-79
2022/03/26 12:36:10;;;;;;;29.80;23.60;;;22.90;44.40;;;;;;5034923;28;20173;-79
2022/03/26 12:38:35;;;;;;;30.13;24.43;;;23.30;43.50;;;;;;5035490;28;20261;-79
2022/03/26 12:41:03;;;;;;;31.10;22.63;;;23.30;43.20;;;;;;5049487;28;20213;-80
2022/03/26 12:43:29;;;;;;;31.90;23.07;;;23.60;42.10;;;;;;5054128;28;20268;-81